KHBG/HBG METAR and TAF weather

Enter ICAO airport designator
Station Type Date Time Source
KHBG METAR 2020/01/21 12:53 UTC NOAA

KHBG 211253Z AUTO 36006KT 10SM CLR M02/M06 A3054 RMK AO2 SLP343 T10221061


Station Type Date Time Source
KHBG Decoded METAR 2020/01/21 12:53 UTC NOAA

HATTIESBURG CHAIN MUNICIPAL, MS, United States (KHBG) 31-16N 89-15W 44M
Jan 21, 2020 - 07:53 AM EST / 2020.01.21 1253 UTC
Wind: from the N (360 degrees) at 7 MPH (6 KT):0
Visibility: 10 mile(s):0
Sky conditions: clear
Temperature: 28.0 F (-2.2 C)
Windchill: 21 F (-6 C):1
Dew Point: 21.0 F (-6.1 C)
Relative Humidity: 74%
Pressure (altimeter): 30.54 in. Hg (1034 hPa)
ob: KHBG 211253Z AUTO 36006KT 10SM CLR M02/M06 A3054 RMK AO2 SLP343 T10221061
cycle: 13

Station Type Date Time Source
KHBG TAF 2020/01/24 06:54 UTC NOAA

TAF KHBG 240552Z 2406/2506 32004KT 5SM BR BKN003 OVC005
FM241300 30006KT 6SM BR OVC007
FM241500 30006KT P6SM OVC015
FM241600 29012G18KT P6SM SCT050
FM250100 29005KT P6SM SKC

Example: see airport list